sensor_id;sensor_type;location;lat;lon;timestamp;pressure;altitude;pressure_sealevel;temperature;humidity
44359;BME280;30077;52.474;13.326;2022-10-16T00:02:45;100494.34;;;14.33;100.00
44359;BME280;30077;52.474;13.326;2022-10-16T00:07:46;100502.13;;;14.38;100.00
44359;BME280;30077;52.474;13.326;2022-10-16T00:12:46;100509.88;;;14.42;100.00
44359;BME280;30077;52.474;13.326;2022-10-16T00:17:46;100518.69;;;14.44;100.00
44359;BME280;30077;52.474;13.326;2022-10-16T00:22:46;100517.63;;;14.47;100.00
44359;BME280;30077;52.474;13.326;2022-10-16T00:27:47;100517.81;;;14.44;100.00
44359;BME280;30077;52.474;13.326;2022-10-16T00:32:47;100537.41;;;14.46;100.00
44359;BME280;30077;52.474;13.326;2022-10-16T00:37:48;100535.31;;;14.51;100.00
44359;BME280;30077;52.474;13.326;2022-10-16T00:42:48;100527.84;;;14.56;100.00
44359;BME280;30077;52.474;13.326;2022-10-16T00:47:50;100523.50;;;14.54;100.00
44359;BME280;30077;52.474;13.326;2022-10-16T00:52:52;100529.22;;;14.48;100.00
44359;BME280;30077;52.474;13.326;2022-10-16T00:57:54;100539.97;;;14.48;100.00
44359;BME280;30077;52.474;13.326;2022-10-16T01:02:59;100543.47;;;14.50;100.00
44359;BME280;30077;52.474;13.326;2022-10-16T01:13:18;100536.91;;;14.39;100.00
44359;BME280;30077;52.474;13.326;2022-10-16T01:18:39;100539.03;;;14.34;100.00
44359;BME280;30077;52.474;13.326;2022-10-16T01:24:01;100555.31;;;14.31;100.00
44359;BME280;30077;52.474;13.326;2022-10-16T01:35:10;100566.06;;;14.31;100.00
44359;BME280;30077;52.474;13.326;2022-10-16T01:40:13;100563.56;;;14.28;100.00
44359;BME280;30077;52.474;13.326;2022-10-16T01:45:17;100571.81;;;14.25;100.00
44359;BME280;30077;52.474;13.326;2022-10-16T01:50:20;100572.84;;;14.23;100.00
44359;BME280;30077;52.474;13.326;2022-10-16T01:55:25;100571.22;;;14.20;100.00
44359;BME280;30077;52.474;13.326;2022-10-16T02:00:29;100582.91;;;14.19;100.00
44359;BME280;30077;52.474;13.326;2022-10-16T02:05:34;100588.09;;;14.22;100.00
44359;BME280;30077;52.474;13.326;2022-10-16T02:10:37;100587.91;;;14.25;100.00
44359;BME280;30077;52.474;13.326;2022-10-16T02:15:38;100595.94;;;14.25;100.00
44359;BME280;30077;52.474;13.326;2022-10-16T02:20:58;100606.56;;;14.27;100.00
44359;BME280;30077;52.474;13.326;2022-10-16T02:26:01;100600.16;;;14.29;100.00
44359;BME280;30077;52.474;13.326;2022-10-16T02:31:05;100603.63;;;14.31;100.00
44359;BME280;30077;52.474;13.326;2022-10-16T02:36:09;100603.63;;;14.31;100.00
44359;BME280;30077;52.474;13.326;2022-10-16T02:41:09;100609.84;;;14.32;100.00
44359;BME280;30077;52.474;13.326;2022-10-16T02:46:10;100607.06;;;14.33;100.00
44359;BME280;30077;52.474;13.326;2022-10-16T02:51:10;100604.38;;;14.33;100.00
44359;BME280;30077;52.474;13.326;2022-10-16T02:56:10;100604.69;;;14.29;100.00
44359;BME280;30077;52.474;13.326;2022-10-16T03:01:11;100612.41;;;14.19;100.00
44359;BME280;30077;52.474;13.326;2022-10-16T03:06:12;100611.25;;;14.09;100.00
44359;BME280;30077;52.474;13.326;2022-10-16T03:11:13;100626.75;;;14.04;100.00
44359;BME280;30077;52.474;13.326;2022-10-16T03:16:13;100632.31;;;14.01;100.00
44359;BME280;30077;52.474;13.326;2022-10-16T03:21:13;100631.72;;;13.95;100.00
44359;BME280;30077;52.474;13.326;2022-10-16T03:26:13;100628.53;;;13.89;100.00
44359;BME280;30077;52.474;13.326;2022-10-16T03:31:14;100633.41;;;13.82;100.00
44359;BME280;30077;52.474;13.326;2022-10-16T03:36:14;100652.53;;;13.76;100.00
44359;BME280;30077;52.474;13.326;2022-10-16T03:41:14;100659.97;;;13.71;100.00
44359;BME280;30077;52.474;13.326;2022-10-16T03:46:14;100659.22;;;13.69;100.00
44359;BME280;30077;52.474;13.326;2022-10-16T03:51:15;100669.94;;;13.69;100.00
44359;BME280;30077;52.474;13.326;2022-10-16T03:56:15;100674.34;;;13.70;100.00
44359;BME280;30077;52.474;13.326;2022-10-16T04:01:16;100679.53;;;13.73;100.00
44359;BME280;30077;52.474;13.326;2022-10-16T04:06:16;100689.13;;;13.77;100.00
44359;BME280;30077;52.474;13.326;2022-10-16T04:11:16;100699.69;;;13.80;100.00
44359;BME280;30077;52.474;13.326;2022-10-16T04:16:16;100690.69;;;13.81;100.00
44359;BME280;30077;52.474;13.326;2022-10-16T04:21:17;100688.97;;;13.80;100.00
44359;BME280;30077;52.474;13.326;2022-10-16T04:26:17;100693.44;;;13.80;100.00
44359;BME280;30077;52.474;13.326;2022-10-16T04:31:17;100678.56;;;13.74;100.00
44359;BME280;30077;52.474;13.326;2022-10-16T04:36:17;100670.81;;;13.69;100.00
44359;BME280;30077;52.474;13.326;2022-10-16T04:41:18;100663.97;;;13.64;100.00
44359;BME280;30077;52.474;13.326;2022-10-16T04:46:18;100659.75;;;13.60;100.00
44359;BME280;30077;52.474;13.326;2022-10-16T04:51:18;100670.75;;;13.55;100.00
44359;BME280;30077;52.474;13.326;2022-10-16T04:56:18;100663.91;;;13.49;100.00
44359;BME280;30077;52.474;13.326;2022-10-16T05:01:19;100684.66;;;13.46;100.00
44359;BME280;30077;52.474;13.326;2022-10-16T05:06:19;100697.34;;;13.42;100.00
44359;BME280;30077;52.474;13.326;2022-10-16T05:11:19;100707.13;;;13.43;100.00
44359;BME280;30077;52.474;13.326;2022-10-16T05:16:20;100708.50;;;13.51;100.00
44359;BME280;30077;52.474;13.326;2022-10-16T05:21:20;100709.13;;;13.56;100.00
44359;BME280;30077;52.474;13.326;2022-10-16T05:26:20;100706.28;;;13.59;100.00
44359;BME280;30077;52.474;13.326;2022-10-16T05:31:21;100704.53;;;13.58;100.00
44359;BME280;30077;52.474;13.326;2022-10-16T05:36:21;100707.41;;;13.55;100.00
44359;BME280;30077;52.474;13.326;2022-10-16T05:41:21;100713.69;;;13.54;100.00
44359;BME280;30077;52.474;13.326;2022-10-16T05:46:23;100721.72;;;13.54;100.00
44359;BME280;30077;52.474;13.326;2022-10-16T05:51:23;100725.09;;;13.57;100.00
44359;BME280;30077;52.474;13.326;2022-10-16T05:56:24;100727.56;;;13.62;100.00
44359;BME280;30077;52.474;13.326;2022-10-16T06:01:24;100730.72;;;13.68;100.00
44359;BME280;30077;52.474;13.326;2022-10-16T06:06:26;100728.50;;;13.77;100.00
44359;BME280;30077;52.474;13.326;2022-10-16T06:11:29;100735.13;;;13.85;100.00
44359;BME280;30077;52.474;13.326;2022-10-16T06:16:30;100734.41;;;13.97;100.00
44359;BME280;30077;52.474;13.326;2022-10-16T06:21:30;100748.94;;;14.09;100.00
44359;BME280;30077;52.474;13.326;2022-10-16T06:26:31;100730.47;;;14.19;100.00
44359;BME280;30077;52.474;13.326;2022-10-16T06:31:32;100762.03;;;14.30;100.00
44359;BME280;30077;52.474;13.326;2022-10-16T06:36:33;100762.72;;;14.33;100.00
44359;BME280;30077;52.474;13.326;2022-10-16T06:41:34;100778.66;;;14.36;100.00
44359;BME280;30077;52.474;13.326;2022-10-16T06:46:35;100785.75;;;14.37;100.00
44359;BME280;30077;52.474;13.326;2022-10-16T06:51:36;100786.34;;;14.42;100.00
44359;BME280;30077;52.474;13.326;2022-10-16T06:56:40;100788.50;;;14.52;100.00
44359;BME280;30077;52.474;13.326;2022-10-16T07:01:41;100795.66;;;14.81;100.00
44359;BME280;30077;52.474;13.326;2022-10-16T07:06:41;100795.66;;;15.40;100.00
44359;BME280;30077;52.474;13.326;2022-10-16T07:11:41;100809.69;;;16.01;100.00
44359;BME280;30077;52.474;13.326;2022-10-16T07:16:41;100826.84;;;16.40;100.00
44359;BME280;30077;52.474;13.326;2022-10-16T07:21:42;100811.56;;;16.40;100.00
44359;BME280;30077;52.474;13.326;2022-10-16T07:26:44;100828.19;;;16.47;100.00
44359;BME280;30077;52.474;13.326;2022-10-16T07:31:45;100815.81;;;16.57;100.00
44359;BME280;30077;52.474;13.326;2022-10-16T07:36:48;100816.47;;;16.60;100.00
44359;BME280;30077;52.474;13.326;2022-10-16T07:41:48;100832.31;;;16.65;100.00
44359;BME280;30077;52.474;13.326;2022-10-16T07:46:48;100821.34;;;16.68;100.00
44359;BME280;30077;52.474;13.326;2022-10-16T07:51:49;100824.78;;;16.70;100.00
44359;BME280;30077;52.474;13.326;2022-10-16T07:56:49;100822.53;;;16.64;100.00
44359;BME280;30077;52.474;13.326;2022-10-16T08:01:49;100839.44;;;16.66;100.00
44359;BME280;30077;52.474;13.326;2022-10-16T08:06:50;100858.44;;;16.77;100.00
44359;BME280;30077;52.474;13.326;2022-10-16T08:11:50;100873.16;;;16.99;100.00
44359;BME280;30077;52.474;13.326;2022-10-16T08:16:54;100866.06;;;17.23;100.00
44359;BME280;30077;52.474;13.326;2022-10-16T08:21:54;100866.75;;;17.40;100.00
44359;BME280;30077;52.474;13.326;2022-10-16T08:26:56;100868.88;;;17.35;100.00
44359;BME280;30077;52.474;13.326;2022-10-16T08:31:56;100868.34;;;17.29;100.00
44359;BME280;30077;52.474;13.326;2022-10-16T08:36:56;100878.16;;;17.18;100.00
44359;BME280;30077;52.474;13.326;2022-10-16T08:42:05;100879.66;;;17.09;100.00
44359;BME280;30077;52.474;13.326;2022-10-16T08:52:29;100873.19;;;17.24;100.00
44359;BME280;30077;52.474;13.326;2022-10-16T08:57:31;100879.69;;;17.22;100.00
44359;BME280;30077;52.474;13.326;2022-10-16T09:02:39;100897.78;;;17.20;100.00
44359;BME280;30077;52.474;13.326;2022-10-16T09:07:49;100896.31;;;17.54;100.00
44359;BME280;30077;52.474;13.326;2022-10-16T09:13:00;100913.81;;;17.87;100.00
44359;BME280;30077;52.474;13.326;2022-10-16T09:18:10;100919.59;;;17.93;100.00
44359;BME280;30077;52.474;13.326;2022-10-16T09:23:30;100907.72;;;17.96;100.00
44359;BME280;30077;52.474;13.326;2022-10-16T09:28:31;100903.69;;;18.14;99.23
44359;BME280;30077;52.474;13.326;2022-10-16T09:33:36;100899.53;;;17.97;100.00
44359;BME280;30077;52.474;13.326;2022-10-16T09:38:39;100917.91;;;17.79;100.00
44359;BME280;30077;52.474;13.326;2022-10-16T09:44:00;100925.88;;;17.94;100.00
44359;BME280;30077;52.474;13.326;2022-10-16T09:49:05;100933.53;;;18.00;100.00
44359;BME280;30077;52.474;13.326;2022-10-16T10:04:11;100951.66;;;18.23;100.00
44359;BME280;30077;52.474;13.326;2022-10-16T10:09:22;100962.91;;;18.54;96.67
44359;BME280;30077;52.474;13.326;2022-10-16T10:14:37;100952.47;;;18.73;94.08
44359;BME280;30077;52.474;13.326;2022-10-16T10:24:59;100955.75;;;18.90;92.70
44359;BME280;30077;52.474;13.326;2022-10-16T10:30:24;100963.25;;;18.86;92.12
44359;BME280;30077;52.474;13.326;2022-10-16T10:46:32;100988.91;;;19.40;84.67
44359;BME280;30077;52.474;13.326;2022-10-16T10:51:56;100966.63;;;19.71;83.15
44359;BME280;30077;52.474;13.326;2022-10-16T11:02:26;100976.63;;;19.93;81.22
44359;BME280;30077;52.474;13.326;2022-10-16T11:07:38;100979.22;;;20.51;78.33
44359;BME280;30077;52.474;13.326;2022-10-16T11:12:49;100991.72;;;20.86;76.49
44359;BME280;30077;52.474;13.326;2022-10-16T11:18:08;100982.41;;;20.67;75.68
44359;BME280;30077;52.474;13.326;2022-10-16T11:23:23;100986.22;;;20.42;77.37
44359;BME280;30077;52.474;13.326;2022-10-16T11:28:32;100981.69;;;19.98;77.97
44359;BME280;30077;52.474;13.326;2022-10-16T11:33:47;100987.16;;;19.39;77.61
44359;BME280;30077;52.474;13.326;2022-10-16T11:39:07;100987.00;;;18.94;79.60
44359;BME280;30077;52.474;13.326;2022-10-16T11:49:33;100976.63;;;18.51;82.27
44359;BME280;30077;52.474;13.326;2022-10-16T11:54:59;100986.28;;;18.29;81.07
44359;BME280;30077;52.474;13.326;2022-10-16T12:00:14;100987.69;;;18.22;81.66
44359;BME280;30077;52.474;13.326;2022-10-16T12:05:33;101006.44;;;18.13;81.24
44359;BME280;30077;52.474;13.326;2022-10-16T12:10:37;101015.06;;;18.05;80.84
44359;BME280;30077;52.474;13.326;2022-10-16T12:15:37;101019.50;;;18.06;78.69
44359;BME280;30077;52.474;13.326;2022-10-16T12:20:38;101016.25;;;18.26;77.93
44359;BME280;30077;52.474;13.326;2022-10-16T12:25:54;101022.25;;;18.56;77.35
44359;BME280;30077;52.474;13.326;2022-10-16T12:30:58;101022.97;;;18.70;76.76
44359;BME280;30077;52.474;13.326;2022-10-16T12:36:00;101017.53;;;18.83;76.18
44359;BME280;30077;52.474;13.326;2022-10-16T12:41:03;101021.41;;;18.92;75.87
44359;BME280;30077;52.474;13.326;2022-10-16T12:46:20;101030.03;;;18.97;75.96
44359;BME280;30077;52.474;13.326;2022-10-16T12:56:41;101028.06;;;18.99;71.46
44359;BME280;30077;52.474;13.326;2022-10-16T13:02:06;101029.09;;;19.09;70.38
44359;BME280;30077;52.474;13.326;2022-10-16T13:07:25;101037.75;;;19.14;70.69
44359;BME280;30077;52.474;13.326;2022-10-16T13:18:22;101053.75;;;19.17;70.79
44359;BME280;30077;52.474;13.326;2022-10-16T13:28:52;101074.31;;;19.55;69.79
44359;BME280;30077;52.474;13.326;2022-10-16T13:33:55;101076.56;;;19.61;68.83
44359;BME280;30077;52.474;13.326;2022-10-16T13:39:30;101084.13;;;19.45;69.70
44359;BME280;30077;52.474;13.326;2022-10-16T13:44:43;101085.72;;;19.23;70.58
44359;BME280;30077;52.474;13.326;2022-10-16T13:49:46;101085.72;;;19.23;70.84
44359;BME280;30077;52.474;13.326;2022-10-16T13:54:48;101086.59;;;19.00;71.79
44359;BME280;30077;52.474;13.326;2022-10-16T13:59:48;101086.53;;;18.63;72.49
44359;BME280;30077;52.474;13.326;2022-10-16T14:04:49;101089.78;;;18.43;74.40
44359;BME280;30077;52.474;13.326;2022-10-16T14:09:50;101096.28;;;18.53;74.67
44359;BME280;30077;52.474;13.326;2022-10-16T14:14:53;101093.56;;;18.79;73.05
44359;BME280;30077;52.474;13.326;2022-10-16T14:19:56;101105.56;;;18.74;73.18
44359;BME280;30077;52.474;13.326;2022-10-16T14:24:57;101105.53;;;18.62;74.19
44359;BME280;30077;52.474;13.326;2022-10-16T14:30:18;101107.81;;;18.55;73.76
44359;BME280;30077;52.474;13.326;2022-10-16T14:35:35;101106.78;;;18.45;72.81
44359;BME280;30077;52.474;13.326;2022-10-16T14:40:37;101102.88;;;18.36;73.27
44359;BME280;30077;52.474;13.326;2022-10-16T14:45:59;101114.75;;;18.34;73.61
44359;BME280;30077;52.474;13.326;2022-10-16T14:50:59;101114.88;;;18.19;74.97
44359;BME280;30077;52.474;13.326;2022-10-16T14:56:06;101113.88;;;18.08;75.42
44359;BME280;30077;52.474;13.326;2022-10-16T15:01:09;101121.53;;;18.01;74.94
44359;BME280;30077;52.474;13.326;2022-10-16T15:06:12;101119.78;;;17.87;75.44
44359;BME280;30077;52.474;13.326;2022-10-16T15:11:17;101134.03;;;17.76;75.40
44359;BME280;30077;52.474;13.326;2022-10-16T15:16:18;101131.69;;;17.70;75.92
44359;BME280;30077;52.474;13.326;2022-10-16T15:21:28;101146.09;;;17.56;75.52
44359;BME280;30077;52.474;13.326;2022-10-16T15:26:29;101152.41;;;17.43;76.31
44359;BME280;30077;52.474;13.326;2022-10-16T15:31:30;101157.47;;;17.20;77.43
44359;BME280;30077;52.474;13.326;2022-10-16T15:36:34;101168.09;;;17.09;77.49
44359;BME280;30077;52.474;13.326;2022-10-16T15:41:36;101178.91;;;16.95;77.62
44359;BME280;30077;52.474;13.326;2022-10-16T15:46:36;101174.59;;;16.78;78.35
44359;BME280;30077;52.474;13.326;2022-10-16T15:51:38;101192.72;;;16.60;79.34
44359;BME280;30077;52.474;13.326;2022-10-16T15:56:39;101198.09;;;16.46;79.54
44359;BME280;30077;52.474;13.326;2022-10-16T16:01:39;101196.41;;;16.29;80.48
44359;BME280;30077;52.474;13.326;2022-10-16T16:06:39;101205.31;;;16.15;81.16
44359;BME280;30077;52.474;13.326;2022-10-16T16:11:44;101206.25;;;16.00;81.90
44359;BME280;30077;52.474;13.326;2022-10-16T16:16:44;101217.91;;;15.84;82.70
44359;BME280;30077;52.474;13.326;2022-10-16T16:21:45;101224.34;;;15.66;83.86
44359;BME280;30077;52.474;13.326;2022-10-16T16:26:45;101233.34;;;15.49;84.99
44359;BME280;30077;52.474;13.326;2022-10-16T16:31:45;101245.66;;;15.37;85.47
44359;BME280;30077;52.474;13.326;2022-10-16T16:36:47;101250.25;;;15.35;85.80
44359;BME280;30077;52.474;13.326;2022-10-16T16:41:47;101249.97;;;15.24;86.35
44359;BME280;30077;52.474;13.326;2022-10-16T16:46:47;101268.50;;;15.13;87.22
44359;BME280;30077;52.474;13.326;2022-10-16T16:51:48;101280.09;;;14.98;88.40
44359;BME280;30077;52.474;13.326;2022-10-16T16:56:48;101292.38;;;14.86;89.25
44359;BME280;30077;52.474;13.326;2022-10-16T17:01:49;101297.44;;;14.75;90.51
44359;BME280;30077;52.474;13.326;2022-10-16T17:06:50;101295.38;;;14.62;92.36
44359;BME280;30077;52.474;13.326;2022-10-16T17:11:50;101302.25;;;14.51;93.06
44359;BME280;30077;52.474;13.326;2022-10-16T17:16:51;101316.03;;;14.43;93.84
44359;BME280;30077;52.474;13.326;2022-10-16T17:21:52;101314.75;;;14.33;94.10
44359;BME280;30077;52.474;13.326;2022-10-16T17:26:52;101325.06;;;14.23;95.46
44359;BME280;30077;52.474;13.326;2022-10-16T17:31:55;101329.09;;;14.14;96.02
44359;BME280;30077;52.474;13.326;2022-10-16T17:36:55;101343.53;;;14.12;96.42
44359;BME280;30077;52.474;13.326;2022-10-16T17:41:56;101348.34;;;14.05;96.99
44359;BME280;30077;52.474;13.326;2022-10-16T17:46:56;101347.78;;;13.99;96.72
44359;BME280;30077;52.474;13.326;2022-10-16T17:51:58;101356.75;;;13.97;97.09
44359;BME280;30077;52.474;13.326;2022-10-16T17:57:00;101357.06;;;13.91;96.83
44359;BME280;30077;52.474;13.326;2022-10-16T18:02:02;101348.47;;;13.83;97.48
44359;BME280;30077;52.474;13.326;2022-10-16T18:07:03;101353.28;;;13.77;99.56
44359;BME280;30077;52.474;13.326;2022-10-16T18:12:03;101367.22;;;13.66;100.00
44359;BME280;30077;52.474;13.326;2022-10-16T18:17:04;101375.38;;;13.63;100.00
44359;BME280;30077;52.474;13.326;2022-10-16T18:22:06;101382.56;;;13.62;100.00
44359;BME280;30077;52.474;13.326;2022-10-16T18:27:07;101381.69;;;13.62;100.00
44359;BME280;30077;52.474;13.326;2022-10-16T18:32:07;101389.06;;;13.57;100.00
44359;BME280;30077;52.474;13.326;2022-10-16T18:37:08;101398.31;;;13.49;100.00
44359;BME280;30077;52.474;13.326;2022-10-16T18:42:08;101417.31;;;13.45;100.00
44359;BME280;30077;52.474;13.326;2022-10-16T18:47:10;101416.72;;;13.38;100.00
44359;BME280;30077;52.474;13.326;2022-10-16T18:52:10;101424.97;;;13.34;100.00
44359;BME280;30077;52.474;13.326;2022-10-16T18:57:11;101426.09;;;13.28;100.00
44359;BME280;30077;52.474;13.326;2022-10-16T19:02:11;101421.75;;;13.26;100.00
44359;BME280;30077;52.474;13.326;2022-10-16T19:07:11;101419.94;;;13.26;100.00
44359;BME280;30077;52.474;13.326;2022-10-16T19:12:14;101415.38;;;13.28;100.00
44359;BME280;30077;52.474;13.326;2022-10-16T19:17:15;101416.22;;;13.29;100.00
44359;BME280;30077;52.474;13.326;2022-10-16T19:22:15;101429.94;;;13.21;100.00
44359;BME280;30077;52.474;13.326;2022-10-16T19:27:29;101433.81;;;13.14;100.00
44359;BME280;30077;52.474;13.326;2022-10-16T19:32:31;101428.34;;;13.17;100.00
44359;BME280;30077;52.474;13.326;2022-10-16T19:37:31;101438.81;;;13.23;100.00
44359;BME280;30077;52.474;13.326;2022-10-16T19:42:31;101435.06;;;13.27;100.00
44359;BME280;30077;52.474;13.326;2022-10-16T19:47:32;101453.63;;;13.32;100.00
44359;BME280;30077;52.474;13.326;2022-10-16T19:52:32;101442.00;;;13.33;100.00
44359;BME280;30077;52.474;13.326;2022-10-16T19:57:34;101455.44;;;13.31;100.00
44359;BME280;30077;52.474;13.326;2022-10-16T20:02:35;101461.00;;;13.27;100.00
44359;BME280;30077;52.474;13.326;2022-10-16T20:07:35;101475.50;;;13.21;100.00
44359;BME280;30077;52.474;13.326;2022-10-16T20:12:35;101481.06;;;13.16;100.00
44359;BME280;30077;52.474;13.326;2022-10-16T20:17:36;101491.03;;;13.13;100.00
44359;BME280;30077;52.474;13.326;2022-10-16T20:22:36;101510.84;;;13.09;100.00
44359;BME280;30077;52.474;13.326;2022-10-16T20:27:36;101515.47;;;13.05;100.00
44359;BME280;30077;52.474;13.326;2022-10-16T20:32:37;101511.97;;;13.03;100.00
44359;BME280;30077;52.474;13.326;2022-10-16T20:37:37;101516.59;;;12.99;100.00
44359;BME280;30077;52.474;13.326;2022-10-16T20:42:39;101519.22;;;13.01;100.00
44359;BME280;30077;52.474;13.326;2022-10-16T20:47:39;101521.78;;;13.04;100.00
44359;BME280;30077;52.474;13.326;2022-10-16T20:52:40;101503.78;;;13.08;100.00
44359;BME280;30077;52.474;13.326;2022-10-16T20:57:40;101521.44;;;13.12;100.00
44359;BME280;30077;52.474;13.326;2022-10-16T21:02:43;101518.56;;;13.16;100.00
44359;BME280;30077;52.474;13.326;2022-10-16T21:07:43;101521.91;;;13.21;100.00
44359;BME280;30077;52.474;13.326;2022-10-16T21:12:43;101528.16;;;13.22;100.00
44359;BME280;30077;52.474;13.326;2022-10-16T21:17:43;101530.03;;;13.20;100.00
44359;BME280;30077;52.474;13.326;2022-10-16T21:22:44;101525.66;;;13.17;100.00
44359;BME280;30077;52.474;13.326;2022-10-16T21:27:44;101534.56;;;13.18;100.00
44359;BME280;30077;52.474;13.326;2022-10-16T21:32:45;101546.94;;;13.22;100.00
44359;BME280;30077;52.474;13.326;2022-10-16T21:37:48;101546.88;;;13.23;100.00
44359;BME280;30077;52.474;13.326;2022-10-16T21:42:49;101551.34;;;13.23;100.00
44359;BME280;30077;52.474;13.326;2022-10-16T21:47:49;101564.88;;;13.20;100.00
44359;BME280;30077;52.474;13.326;2022-10-16T21:52:49;101578.38;;;13.17;100.00
44359;BME280;30077;52.474;13.326;2022-10-16T21:57:49;101576.84;;;13.11;100.00
44359;BME280;30077;52.474;13.326;2022-10-16T22:02:50;101573.53;;;13.05;100.00
44359;BME280;30077;52.474;13.326;2022-10-16T22:07:50;101565.75;;;12.98;100.00
44359;BME280;30077;52.474;13.326;2022-10-16T22:12:50;101568.53;;;12.95;100.00
44359;BME280;30077;52.474;13.326;2022-10-16T22:17:50;101575.78;;;12.93;100.00
44359;BME280;30077;52.474;13.326;2022-10-16T22:22:51;101574.09;;;12.91;100.00
44359;BME280;30077;52.474;13.326;2022-10-16T22:27:51;101561.81;;;12.85;100.00
44359;BME280;30077;52.474;13.326;2022-10-16T22:32:51;101561.06;;;12.82;100.00
44359;BME280;30077;52.474;13.326;2022-10-16T22:37:51;101566.56;;;12.79;100.00
44359;BME280;30077;52.474;13.326;2022-10-16T22:42:52;101585.47;;;12.74;100.00
44359;BME280;30077;52.474;13.326;2022-10-16T22:47:52;101565.06;;;12.71;100.00
44359;BME280;30077;52.474;13.326;2022-10-16T22:52:53;101572.91;;;12.76;100.00
44359;BME280;30077;52.474;13.326;2022-10-16T22:57:55;101579.75;;;12.83;100.00
44359;BME280;30077;52.474;13.326;2022-10-16T23:02:55;101584.72;;;12.92;100.00
44359;BME280;30077;52.474;13.326;2022-10-16T23:07:56;101582.75;;;12.97;100.00
44359;BME280;30077;52.474;13.326;2022-10-16T23:12:56;101573.53;;;13.05;100.00
44359;BME280;30077;52.474;13.326;2022-10-16T23:17:56;101572.34;;;13.12;100.00
44359;BME280;30077;52.474;13.326;2022-10-16T23:22:56;101581.88;;;13.19;100.00
44359;BME280;30077;52.474;13.326;2022-10-16T23:27:56;101580.78;;;13.24;100.00
44359;BME280;30077;52.474;13.326;2022-10-16T23:32:57;101572.69;;;13.26;100.00
44359;BME280;30077;52.474;13.326;2022-10-16T23:37:57;101582.34;;;13.30;100.00
44359;BME280;30077;52.474;13.326;2022-10-16T23:42:57;101577.78;;;13.32;100.00
44359;BME280;30077;52.474;13.326;2022-10-16T23:47:58;101587.50;;;13.35;100.00
44359;BME280;30077;52.474;13.326;2022-10-16T23:52:58;101594.56;;;13.37;100.00
44359;BME280;30077;52.474;13.326;2022-10-16T23:57:58;101600.56;;;13.42;100.00
